Time;durP1;ratioP1;P1;durP2;ratioP2;P2;SDS_P1;SDS_P2;PMS_P1;PMS_P2;Temp;Humidity;BMP_temperature;BMP_pressure;BME280_temperature;BME280_humidity;BME280_pressure;Samples;Min_cycle;Max_cycle;Signal;HPM_P1;HPM_P2
2021/05/05 00:01:04;;;;;;;10.30;2.47;;;6.30;99.90;;;;;;5071647;28;20042;-61
2021/05/05 00:03:30;;;;;;;16.17;2.92;;;6.20;99.90;;;;;;5090066;28;20043;-61
2021/05/05 00:05:56;;;;;;;8.23;2.00;;;6.30;99.90;;;;;;5091999;28;20103;-61
2021/05/05 00:08:23;;;;;;;12.15;2.05;;;6.40;99.90;;;;;;5094832;28;20048;-61
2021/05/05 00:10:50;;;;;;;12.25;2.33;;;6.30;99.90;;;;;;5095002;28;20162;-60
2021/05/05 00:13:16;;;;;;;8.48;2.00;;;6.20;99.90;;;;;;5095314;28;20339;-61
2021/05/05 00:15:43;;;;;;;13.10;2.65;;;6.30;99.90;;;;;;5093064;28;20048;-60
2021/05/05 00:18:08;;;;;;;12.70;2.05;;;6.30;99.90;;;;;;5089721;28;20044;-61
2021/05/05 00:20:34;;;;;;;14.13;2.60;;;6.40;99.90;;;;;;5089612;28;20059;-61
2021/05/05 00:23:00;;;;;;;11.03;2.17;;;6.50;99.90;;;;;;5089673;28;20122;-61
2021/05/05 00:25:26;;;;;;;11.00;2.50;;;6.60;99.90;;;;;;5089092;28;20123;-61
2021/05/05 00:27:52;;;;;;;15.02;2.58;;;6.50;99.90;;;;;;5089420;28;20044;-61
2021/05/05 00:30:21;;;;;;;11.83;2.50;;;6.40;99.90;;;;;;5071066;28;20051;-61
2021/05/05 00:32:46;;;;;;;11.23;2.17;;;6.40;99.90;;;;;;5089325;28;20312;-62
2021/05/05 00:35:13;;;;;;;12.23;3.00;;;6.40;99.90;;;;;;5089019;28;20044;-62
2021/05/05 00:37:40;;;;;;;11.02;2.03;;;6.30;99.90;;;;;;5089007;28;20052;-61
2021/05/05 00:40:08;;;;;;;12.13;1.92;;;6.30;99.90;;;;;;5089147;28;20147;-61
2021/05/05 00:42:34;;;;;;;20.15;2.35;;;6.30;99.90;;;;;;5088124;28;20063;-62
2021/05/05 00:45:09;;;;;;;11.85;1.92;;;6.20;99.90;;;;;;5089163;28;20055;-61
2021/05/05 00:47:35;;;;;;;17.05;2.47;;;6.20;99.90;;;;;;5089095;28;20081;-62
2021/05/05 00:50:02;;;;;;;14.27;2.42;;;6.10;99.90;;;;;;5088970;28;20044;-61
2021/05/05 00:52:27;;;;;;;9.85;1.98;;;6.00;99.90;;;;;;5070192;28;20048;-61
2021/05/05 00:54:53;;;;;;;13.83;3.50;;;6.00;99.90;;;;;;5089149;28;20165;-61
2021/05/05 00:57:20;;;;;;;18.07;2.73;;;6.00;99.90;;;;;;5089103;28;20048;-61
2021/05/05 00:59:47;;;;;;;10.35;2.08;;;6.00;99.90;;;;;;5088723;28;20130;-62
2021/05/05 01:02:13;;;;;;;10.80;2.30;;;6.10;99.90;;;;;;5088853;28;20044;-62
2021/05/05 01:04:39;;;;;;;13.70;2.30;;;6.10;99.90;;;;;;5088682;28;20054;-62
2021/05/05 01:07:06;;;;;;;10.00;2.10;;;6.00;99.90;;;;;;5088216;28;20356;-61
2021/05/05 02:01:16;;;;;;;16.90;2.78;;;6.10;99.90;;;;;;4657124;28;20131;-61
2021/05/05 02:03:43;;;;;;;15.55;3.80;;;6.10;99.90;;;;;;5089602;28;20142;-61
2021/05/05 02:06:09;;;;;;;25.37;3.93;;;6.10;99.90;;;;;;5087904;28;20140;-61
2021/05/05 02:08:36;;;;;;;21.95;3.72;;;6.00;99.90;;;;;;5087880;28;20059;-61
2021/05/05 02:11:02;;;;;;;14.85;3.38;;;6.00;99.90;;;;;;5087664;28;20043;-62
2021/05/05 02:13:28;;;;;;;16.87;3.00;;;6.00;99.90;;;;;;5087805;28;20127;-61
2021/05/05 02:15:54;;;;;;;16.47;2.73;;;5.90;99.90;;;;;;5069478;28;20048;-61
2021/05/05 02:18:19;;;;;;;15.10;3.10;;;5.90;99.90;;;;;;5087714;28;20460;-61
2021/05/05 02:20:45;;;;;;;13.90;3.00;;;6.00;99.90;;;;;;5087522;28;20561;-61
2021/05/05 02:23:11;;;;;;;15.90;3.00;;;6.00;99.90;;;;;;5087913;28;20059;-61
2021/05/05 02:25:36;;;;;;;18.17;3.17;;;6.10;99.90;;;;;;5087560;28;20094;-61
2021/05/05 02:28:02;;;;;;;19.87;3.50;;;6.10;99.90;;;;;;5087569;28;20432;-61
2021/05/05 02:30:28;;;;;;;16.20;3.07;;;6.10;99.90;;;;;;5087625;28;20112;-61
2021/05/05 02:32:54;;;;;;;19.30;4.03;;;6.10;99.90;;;;;;5087544;28;20087;-61
2021/05/05 02:35:20;;;;;;;13.47;2.50;;;6.10;99.90;;;;;;5088407;28;20413;-61
2021/05/05 02:37:47;;;;;;;13.73;2.80;;;6.10;99.90;;;;;;5093542;28;20040;-61
2021/05/05 02:40:14;;;;;;;11.18;2.58;;;6.10;99.90;;;;;;5092745;28;20071;-62
2021/05/05 02:42:40;;;;;;;18.17;3.33;;;6.20;99.90;;;;;;5093143;28;20055;-61
2021/05/05 02:45:07;;;;;;;17.27;2.97;;;6.20;99.90;;;;;;5092734;28;20085;-61
2021/05/05 02:47:33;;;;;;;23.27;3.75;;;6.10;99.90;;;;;;5087224;28;20136;-61
2021/05/05 02:49:59;;;;;;;20.42;3.55;;;6.00;99.90;;;;;;5087644;28;20612;-61
2021/05/05 02:52:25;;;;;;;18.90;3.70;;;5.90;99.90;;;;;;5087574;28;20159;-61
2021/05/05 02:54:50;;;;;;;17.83;3.80;;;5.60;99.90;;;;;;5087635;28;20754;-60
2021/05/05 02:57:16;;;;;;;20.27;4.33;;;5.70;99.90;;;;;;5087149;28;20048;-60
2021/05/05 02:59:42;;;;;;;22.47;3.87;;;5.80;99.90;;;;;;5087187;28;20317;-60
2021/05/05 03:02:08;;;;;;;21.13;3.63;;;5.60;99.90;;;;;;5087512;28;20040;-61
2021/05/05 03:04:34;;;;;;;21.52;4.47;;;5.60;99.90;;;;;;5088644;28;20131;-60
2021/05/05 03:07:00;;;;;;;18.38;3.58;;;5.50;99.90;;;;;;5090971;28;20051;-60
2021/05/05 03:09:27;;;;;;;25.20;3.80;;;5.50;99.90;;;;;;5091270;28;20488;-60
2021/05/05 03:11:57;;;;;;;25.58;3.88;;;5.60;99.90;;;;;;5091053;28;20043;-61
2021/05/05 03:14:27;;;;;;;23.15;4.25;;;5.70;99.90;;;;;;5090949;28;20047;-61
2021/05/05 03:16:54;;;;;;;22.33;3.28;;;5.70;99.90;;;;;;5091118;28;20039;-61
2021/05/05 03:19:20;;;;;;;23.73;3.65;;;5.70;99.90;;;;;;5090937;28;20505;-61
2021/05/05 03:21:47;;;;;;;12.90;2.97;;;5.70;99.90;;;;;;5072940;28;20040;-60
2021/05/05 03:24:13;;;;;;;19.05;4.50;;;5.70;99.90;;;;;;5090535;28;20109;-60
2021/05/05 03:26:38;;;;;;;30.87;4.10;;;5.80;99.90;;;;;;5090598;28;20441;-61
2021/05/05 03:29:05;;;;;;;24.13;3.60;;;5.70;99.90;;;;;;5090856;28;20047;-61
2021/05/05 03:31:32;;;;;;;15.18;3.30;;;5.70;99.90;;;;;;5090758;28;20089;-61
2021/05/05 03:33:58;;;;;;;22.05;3.63;;;5.70;99.90;;;;;;5090757;28;20081;-61
2021/05/05 03:36:24;;;;;;;14.20;3.07;;;5.80;99.90;;;;;;5090677;28;20048;-61
2021/05/05 03:38:49;;;;;;;17.87;3.20;;;5.80;99.90;;;;;;5090581;28;20040;-61
2021/05/05 03:41:15;;;;;;;21.57;3.60;;;5.80;99.90;;;;;;5090235;28;20048;-60
2021/05/05 03:43:41;;;;;;;22.10;3.07;;;5.70;99.90;;;;;;5090547;28;20554;-61
2021/05/05 03:46:07;;;;;;;12.80;2.75;;;5.80;99.90;;;;;;5090408;28;20127;-61
2021/05/05 03:48:34;;;;;;;20.57;3.30;;;5.80;99.90;;;;;;5089666;28;20186;-60
2021/05/05 03:51:02;;;;;;;19.80;3.00;;;5.90;99.90;;;;;;5089674;28;20059;-61
2021/05/05 03:53:28;;;;;;;19.00;2.90;;;5.90;99.90;;;;;;5090056;28;20214;-61
2021/05/05 03:55:54;;;;;;;13.90;2.33;;;5.80;99.90;;;;;;5089890;28;20496;-60
2021/05/05 03:58:20;;;;;;;12.67;2.40;;;5.80;99.90;;;;;;5089845;28;20040;-60
2021/05/05 04:00:46;;;;;;;17.40;3.17;;;5.80;99.90;;;;;;5089834;28;20218;-61
2021/05/05 04:03:12;;;;;;;13.03;2.93;;;5.80;99.90;;;;;;5072003;28;20829;-60
2021/05/05 04:05:38;;;;;;;15.25;2.63;;;5.80;99.90;;;;;;5089933;28;20050;-60
2021/05/05 04:08:04;;;;;;;15.40;3.70;;;5.80;99.90;;;;;;5089817;28;20048;-61
2021/05/05 04:10:29;;;;;;;16.80;2.80;;;5.80;99.90;;;;;;5090062;28;20106;-60
2021/05/05 04:12:55;;;;;;;15.53;2.50;;;5.80;99.90;;;;;;5089769;28;20302;-61
2021/05/05 04:15:21;;;;;;;21.67;3.13;;;5.70;99.90;;;;;;5089960;28;20048;-61
2021/05/05 04:17:47;;;;;;;17.63;2.57;;;5.70;99.90;;;;;;5089957;28;20040;-61
2021/05/05 04:20:16;;;;;;;17.90;2.70;;;5.60;99.90;;;;;;5089752;28;20147;-60
2021/05/05 04:22:42;;;;;;;15.10;2.97;;;5.50;99.90;;;;;;5089908;28;20070;-61
2021/05/05 04:25:08;;;;;;;20.27;3.50;;;5.50;99.90;;;;;;5089675;28;20476;-61
2021/05/05 04:27:34;;;;;;;21.85;3.25;;;5.40;99.90;;;;;;5089770;28;20329;-60
2021/05/05 04:30:00;;;;;;;16.33;3.10;;;5.40;99.90;;;;;;5089941;28;20047;-61
2021/05/05 04:32:26;;;;;;;17.00;3.33;;;5.40;99.90;;;;;;5089550;28;20541;-60
2021/05/05 04:34:52;;;;;;;21.77;4.13;;;5.40;99.90;;;;;;5089547;28;20036;-61
2021/05/05 04:37:18;;;;;;;20.70;3.57;;;5.50;99.90;;;;;;5089718;28;20052;-61
2021/05/05 04:39:43;;;;;;;22.43;3.43;;;5.60;99.90;;;;;;5089237;28;20418;-61
2021/05/05 04:42:11;;;;;;;22.33;4.40;;;5.70;99.90;;;;;;5089568;28;20059;-62
2021/05/05 04:44:37;;;;;;;23.58;4.32;;;5.80;99.90;;;;;;5089265;28;20575;-60
2021/05/05 04:47:04;;;;;;;22.67;3.30;;;5.80;99.90;;;;;;5089291;28;20044;-61
2021/05/05 04:49:29;;;;;;;19.33;3.87;;;5.70;99.90;;;;;;5089128;28;20044;-60
2021/05/05 04:51:55;;;;;;;24.33;3.77;;;5.70;99.90;;;;;;5088924;28;20189;-61
2021/05/05 04:54:22;;;;;;;24.70;4.20;;;5.80;99.90;;;;;;5088905;28;20126;-61
2021/05/05 04:56:48;;;;;;;20.73;3.88;;;5.70;99.90;;;;;;5089131;28;20519;-60
2021/05/05 04:59:13;;;;;;;28.57;4.93;;;5.70;99.90;;;;;;5089024;28;20220;-61
2021/05/05 05:01:39;;;;;;;23.27;3.83;;;5.70;99.90;;;;;;5088512;28;20131;-60
2021/05/05 05:04:05;;;;;;;22.33;3.87;;;5.80;99.90;;;;;;5088937;28;20367;-61
2021/05/05 05:06:31;;;;;;;24.40;4.28;;;6.10;99.90;;;;;;5088685;28;20047;-61
2021/05/05 05:08:57;;;;;;;18.93;3.27;;;6.40;99.90;;;;;;5091075;28;20120;-61
2021/05/05 05:11:23;;;;;;;23.87;3.93;;;6.80;99.90;;;;;;5075507;28;20063;-61
2021/05/05 05:13:49;;;;;;;25.50;3.67;;;6.90;99.90;;;;;;5094145;28;20108;-62
2021/05/05 05:16:15;;;;;;;23.20;3.97;;;6.80;99.90;;;;;;5093850;28;20308;-60
2021/05/05 05:18:40;;;;;;;23.33;3.80;;;6.90;99.90;;;;;;5093882;28;20587;-62
2021/05/05 05:21:06;;;;;;;21.40;3.60;;;6.80;99.90;;;;;;5091890;28;20073;-61
2021/05/05 05:23:33;;;;;;;18.35;3.60;;;6.80;99.90;;;;;;5088644;28;20090;-61
2021/05/05 05:25:59;;;;;;;17.42;3.70;;;6.80;99.90;;;;;;5088443;28;20054;-61
2021/05/05 05:28:26;;;;;;;25.57;4.40;;;6.80;99.90;;;;;;5087847;28;20043;-61
2021/05/05 05:30:52;;;;;;;18.33;2.95;;;6.80;99.90;;;;;;5088389;28;20101;-61
2021/05/05 05:33:18;;;;;;;12.67;2.70;;;6.90;99.90;;;;;;5088574;28;20051;-61
2021/05/05 05:35:44;;;;;;;15.93;2.90;;;6.80;99.90;;;;;;5088293;28;20051;-61
2021/05/05 05:38:10;;;;;;;18.63;3.30;;;7.00;99.90;;;;;;5069976;28;20404;-62
2021/05/05 05:40:36;;;;;;;22.20;3.53;;;7.20;99.90;;;;;;5101830;28;20469;-61
2021/05/05 05:43:02;;;;;;;14.87;3.13;;;7.30;99.90;;;;;;5108747;28;20132;-61
2021/05/05 05:45:28;;;;;;;20.67;4.38;;;7.20;99.90;;;;;;5108707;28;20459;-61
2021/05/05 05:47:54;;;;;;;18.63;3.10;;;7.20;99.90;;;;;;5108462;28;20058;-60
2021/05/05 05:50:20;;;;;;;18.47;3.63;;;7.10;99.90;;;;;;5108448;28;20305;-61
2021/05/05 05:52:47;;;;;;;19.48;3.35;;;7.20;99.90;;;;;;5108759;28;20131;-62
2021/05/05 05:55:15;;;;;;;19.23;3.50;;;7.20;99.90;;;;;;5108812;28;20075;-61
2021/05/05 05:57:43;;;;;;;18.63;3.00;;;7.20;99.90;;;;;;5090704;28;20047;-60
2021/05/05 06:00:11;;;;;;;17.30;3.35;;;7.40;99.90;;;;;;5108601;28;20043;-61
2021/05/05 06:02:37;;;;;;;21.50;3.70;;;7.60;99.90;;;;;;5108273;28;20105;-61
2021/05/05 06:05:04;;;;;;;18.37;3.20;;;7.80;99.90;;;;;;5108891;28;20293;-61
2021/05/05 06:07:30;;;;;;;18.33;3.20;;;8.10;99.90;;;;;;5108607;28;20050;-60
2021/05/05 06:09:56;;;;;;;15.37;3.20;;;8.10;99.90;;;;;;5108181;28;20332;-61
2021/05/05 06:12:22;;;;;;;20.03;4.00;;;8.40;99.90;;;;;;5108283;28;20348;-61
2021/05/05 06:14:48;;;;;;;21.10;3.60;;;8.40;99.90;;;;;;5108770;28;20046;-62
2021/05/05 06:17:14;;;;;;;17.90;3.80;;;8.20;99.90;;;;;;5108017;28;20067;-62
2021/05/05 06:19:40;;;;;;;16.23;3.13;;;8.20;99.90;;;;;;5090585;28;20317;-61
2021/05/05 06:22:05;;;;;;;15.97;3.07;;;8.40;99.90;;;;;;5108642;28;20515;-63
2021/05/05 06:24:31;;;;;;;18.10;3.53;;;8.30;99.90;;;;;;5108065;28;20050;-62
2021/05/05 06:26:57;;;;;;;15.10;3.17;;;8.30;99.90;;;;;;5107737;28;20044;-63
2021/05/05 06:29:23;;;;;;;15.87;2.57;;;8.40;99.90;;;;;;5108277;28;20055;-62
2021/05/05 06:31:48;;;;;;;17.33;3.00;;;8.40;99.90;;;;;;5108074;28;20517;-67
2021/05/05 06:34:14;;;;;;;18.17;2.93;;;8.30;99.90;;;;;;5108811;28;20043;-66
2021/05/05 06:36:40;;;;;;;18.13;3.27;;;8.30;99.90;;;;;;5108732;28;20138;-68
2021/05/05 06:39:08;;;;;;;15.23;3.03;;;8.20;99.90;;;;;;5109761;28;20119;-57
2021/05/05 06:41:35;;;;;;;18.13;3.70;;;8.30;99.90;;;;;;5113992;28;20058;-62
2021/05/05 06:44:01;;;;;;;13.07;2.80;;;8.20;99.90;;;;;;5112514;28;20308;-63
2021/05/05 06:46:29;;;;;;;19.40;3.13;;;8.20;99.90;;;;;;5112796;28;20298;-63
2021/05/05 06:48:58;;;;;;;13.67;2.73;;;8.40;99.90;;;;;;5112605;28;20070;-63
2021/05/05 06:51:24;;;;;;;16.93;3.20;;;8.50;99.90;;;;;;5113252;28;20323;-63
2021/05/05 06:53:50;;;;;;;17.77;2.93;;;8.50;99.90;;;;;;5112800;28;20328;-63
2021/05/05 06:56:16;;;;;;;20.00;3.23;;;8.80;99.90;;;;;;5112482;28;20048;-63
2021/05/05 06:58:41;;;;;;;16.20;2.53;;;8.80;99.90;;;;;;5112250;28;20582;-62
2021/05/05 07:01:07;;;;;;;18.87;3.40;;;9.00;99.90;;;;;;5112743;28;20062;-63
2021/05/05 07:03:33;;;;;;;16.67;2.63;;;9.00;99.90;;;;;;5112522;28;20094;-61
2021/05/05 07:05:59;;;;;;;12.07;2.27;;;9.10;99.90;;;;;;5112818;28;20082;-63
2021/05/05 07:08:25;;;;;;;10.13;2.50;;;9.10;99.90;;;;;;5111665;28;20039;-63
2021/05/05 07:10:52;;;;;;;13.17;2.80;;;9.00;99.90;;;;;;5111877;28;20321;-63
2021/05/05 07:13:20;;;;;;;14.33;2.73;;;9.10;99.90;;;;;;5111731;28;20297;-62
2021/05/05 07:15:46;;;;;;;14.97;2.87;;;9.00;99.90;;;;;;5093410;28;20571;-62
2021/05/05 07:18:11;;;;;;;13.47;2.47;;;8.90;99.90;;;;;;5111955;28;20378;-62
2021/05/05 07:20:37;;;;;;;16.80;2.60;;;8.60;99.90;;;;;;5111375;28;20092;-63
2021/05/05 07:23:03;;;;;;;22.67;2.50;;;7.80;99.90;;;;;;5111951;28;20039;-63
2021/05/05 07:25:29;;;;;;;11.97;2.00;;;6.70;99.90;;;;;;5112162;28;20303;-62
2021/05/05 07:27:57;;;;;;;10.10;2.10;;;6.20;99.90;;;;;;5092908;28;20056;-63
2021/05/05 07:30:23;;;;;;;7.37;2.00;;;6.00;99.90;;;;;;5111513;28;20039;-62
2021/05/05 07:32:48;;;;;;;7.83;1.90;;;6.00;99.90;;;;;;5092878;28;20297;-63
2021/05/05 07:35:16;;;;;;;11.23;2.57;;;6.20;99.90;;;;;;5111042;28;20046;-62
2021/05/05 07:38:36;;;;;;;9.88;2.45;;;6.20;99.90;;;;;;5093742;28;20048;-63
2021/05/05 07:46:14;;;;;;;23.48;3.22;;;6.80;99.90;;;;;;5029120;28;19920;-63
2021/05/05 07:48:57;;;;;;;16.13;2.90;;;6.90;99.90;;;;;;5027405;28;20049;-63
2021/05/05 07:51:23;;;;;;;20.13;3.15;;;7.10;99.90;;;;;;5077787;28;20407;-62
2021/05/05 07:53:49;;;;;;;19.92;3.53;;;7.30;99.90;;;;;;5110854;28;20141;-62
2021/05/05 07:56:16;;;;;;;14.13;3.22;;;7.60;99.90;;;;;;5110761;28;20063;-62
2021/05/05 07:58:43;;;;;;;15.48;2.45;;;7.70;99.90;;;;;;5110878;28;20470;-62
2021/05/05 08:01:10;;;;;;;18.30;3.50;;;7.80;99.90;;;;;;5110733;28;20459;-61
2021/05/05 08:03:36;;;;;;;16.50;1.90;;;7.90;99.90;;;;;;5109382;28;20290;-62
2021/05/05 08:06:02;;;;;;;13.13;2.80;;;8.10;99.90;;;;;;5109506;28;20297;-61
2021/05/05 08:08:29;;;;;;;10.63;2.57;;;8.10;99.90;;;;;;5109507;28;20051;-62
2021/05/05 08:10:55;;;;;;;11.80;2.80;;;8.10;99.90;;;;;;5109236;28;20740;-62
2021/05/05 08:13:20;;;;;;;13.50;2.50;;;8.30;99.90;;;;;;5109640;28;20841;-62
2021/05/05 08:15:46;;;;;;;8.90;2.00;;;8.40;99.90;;;;;;5109300;28;20048;-62
2021/05/05 08:18:12;;;;;;;13.20;2.63;;;8.60;99.90;;;;;;5109700;28;20100;-62
2021/05/05 08:20:39;;;;;;;10.73;2.43;;;8.60;99.90;;;;;;5109869;28;20104;-63
2021/05/05 08:23:13;;;;;;;10.37;2.60;;;8.50;99.90;;;;;;5109358;28;20119;-63
2021/05/05 08:25:40;;;;;;;11.77;2.60;;;8.30;99.90;;;;;;5110696;28;20293;-64
2021/05/05 08:28:06;;;;;;;11.57;2.43;;;8.00;99.90;;;;;;5110402;28;20313;-62
2021/05/05 08:30:33;;;;;;;12.27;2.33;;;7.70;99.90;;;;;;5110759;28;20305;-62
2021/05/05 08:32:59;;;;;;;12.10;2.87;;;7.30;99.90;;;;;;5110346;28;20847;-63
2021/05/05 08:35:25;;;;;;;14.73;2.80;;;7.30;99.90;;;;;;5110983;28;20317;-62
2021/05/05 08:37:52;;;;;;;14.27;2.90;;;7.30;99.90;;;;;;5109625;28;20760;-62
2021/05/05 08:40:18;;;;;;;8.57;2.25;;;7.10;99.90;;;;;;5109519;28;20329;-62
2021/05/05 08:42:45;;;;;;;10.93;2.63;;;7.00;99.90;;;;;;5109672;28;20123;-62
2021/05/05 08:45:22;;;;;;;13.80;2.63;;;7.10;99.90;;;;;;5110196;28;20359;-63
2021/05/05 08:47:51;;;;;;;16.73;3.10;;;7.40;99.90;;;;;;5110262;28;20043;-65
2021/05/05 08:50:19;;;;;;;10.47;2.23;;;7.60;99.90;;;;;;5110316;28;20392;-63
2021/05/05 08:52:46;;;;;;;17.70;3.10;;;7.60;99.90;;;;;;5110281;28;20293;-63
2021/05/05 08:55:14;;;;;;;25.13;3.30;;;7.50;99.90;;;;;;5109980;28;20349;-64
2021/05/05 08:57:40;;;;;;;16.13;2.60;;;7.10;99.90;;;;;;5110301;28;20363;-64
2021/05/05 09:00:09;;;;;;;10.40;2.70;;;6.70;99.90;;;;;;5092107;28;20300;-63
2021/05/05 09:02:35;;;;;;;10.27;2.70;;;6.60;99.90;;;;;;5109974;28;20293;-63
2021/05/05 09:05:09;;;;;;;9.40;2.33;;;6.70;99.90;;;;;;5111425;28;20303;-62
2021/05/05 09:07:38;;;;;;;8.10;2.08;;;6.70;99.90;;;;;;5111649;28;20071;-59
2021/05/05 09:10:06;;;;;;;10.23;2.53;;;6.80;99.90;;;;;;5110872;28;20055;-58
2021/05/05 09:12:36;;;;;;;11.77;1.67;;;6.90;99.90;;;;;;5110776;28;20297;-57
2021/05/05 09:15:14;;;;;;;7.40;1.80;;;6.80;99.90;;;;;;5109757;28;20489;-58
2021/05/05 09:17:52;;;;;;;9.93;1.80;;;6.70;99.90;;;;;;5109611;28;20324;-58
2021/05/05 09:20:32;;;;;;;7.45;1.90;;;6.70;99.90;;;;;;5109303;28;20289;-56
2021/05/05 09:23:05;;;;;;;5.60;2.03;;;6.80;99.90;;;;;;5091071;28;20051;-58
2021/05/05 09:25:30;;;;;;;11.63;2.00;;;6.90;99.90;;;;;;5109588;28;20497;-58
2021/05/05 09:28:15;;;;;;;8.60;2.10;;;7.00;99.90;;;;;;5109081;28;20108;-59
2021/05/05 09:30:42;;;;;;;;;;;7.30;99.90;;;;;;5109601;28;20436;-59
2021/05/05 09:33:09;;;;;;;10.43;2.30;;;7.60;99.90;;;;;;5109432;28;19949;-58
2021/05/05 09:35:40;;;;;;;11.67;2.23;;;7.80;99.90;;;;;;5109209;28;20043;-58
2021/05/05 09:38:09;;;;;;;11.80;2.23;;;8.20;99.90;;;;;;5109582;28;20308;-58
2021/05/05 09:40:37;;;;;;;6.67;2.07;;;8.40;99.90;;;;;;5109510;28;20325;-58
2021/05/05 09:43:16;;;;;;;16.07;2.10;;;8.50;99.90;;;;;;5109033;28;20645;-58
2021/05/05 09:45:43;;;;;;;11.70;2.00;;;8.30;99.90;;;;;;5090498;28;20297;-61
2021/05/05 09:48:10;;;;;;;15.47;2.70;;;7.80;99.90;;;;;;5109541;28;20598;-59
2021/05/05 09:50:39;;;;;;;6.30;2.07;;;7.70;99.90;;;;;;5108703;28;20861;-59
2021/05/05 09:53:16;;;;;;;13.60;2.53;;;7.70;99.90;;;;;;5109039;28;20297;-59
2021/05/05 09:55:52;;;;;;;13.27;2.63;;;7.80;99.90;;;;;;5108721;28;20297;-61
2021/05/05 09:58:24;;;;;;;10.93;2.83;;;8.00;99.90;;;;;;5108597;28;20351;-58
2021/05/05 10:01:10;;;;;;;12.00;2.40;;;7.90;99.90;;;;;;5108455;28;20305;-58
2021/05/05 10:03:36;;;;;;;15.00;3.23;;;7.80;99.90;;;;;;5108263;28;20301;-59
2021/05/05 10:06:28;;;;;;;11.53;2.60;;;7.90;99.90;;;;;;5108890;28;20305;-59
2021/05/05 10:08:57;;;;;;;12.50;2.50;;;8.00;99.90;;;;;;5107864;28;20081;-60
2021/05/05 10:11:34;;;;;;;11.40;2.13;;;8.30;99.90;;;;;;5108396;28;20317;-60
2021/05/05 10:14:03;;;;;;;10.40;2.20;;;8.50;99.90;;;;;;5107978;28;20748;-60
2021/05/05 10:16:32;;;;;;;13.33;2.87;;;8.60;99.90;;;;;;5108223;28;20305;-60
2021/05/05 10:18:59;;;;;;;14.07;2.80;;;8.60;99.90;;;;;;5107971;28;20293;-59
2021/05/05 10:21:26;;;;;;;12.67;2.50;;;8.70;99.90;;;;;;5108141;28;20348;-59
2021/05/05 10:23:54;;;;;;;7.97;2.13;;;8.60;99.90;;;;;;5108078;28;20308;-62
2021/05/05 10:26:21;;;;;;;4.87;1.53;;;7.70;99.90;;;;;;5090200;28;20304;-59
2021/05/05 10:28:48;;;;;;;4.60;1.37;;;7.30;99.90;;;;;;5108595;28;20347;-65
2021/05/05 10:31:19;;;;;;;9.43;1.60;;;7.10;99.90;;;;;;5109027;28;20301;-64
2021/05/05 10:34:04;;;;;;;15.97;2.23;;;7.10;99.90;;;;;;5107764;28;20323;-65
2021/05/05 10:36:41;;;;;;;7.57;2.40;;;7.20;99.90;;;;;;5108162;28;20369;-64
2021/05/05 10:39:18;;;;;;;12.47;2.27;;;7.60;99.90;;;;;;5108788;28;20343;-64
2021/05/05 10:41:59;;;;;;;14.57;2.50;;;8.10;99.90;;;;;;5108494;28;20298;-65
2021/05/05 10:44:37;;;;;;;11.87;2.50;;;8.10;99.90;;;;;;5108769;28;20325;-63
2021/05/05 10:47:22;;;;;;;9.43;2.03;;;8.10;99.90;;;;;;5108452;28;20301;-64
2021/05/05 10:52:49;;;;;;;12.77;3.27;;;7.80;99.90;;;;;;5108781;28;20419;-63
2021/05/05 10:55:34;;;;;;;14.10;2.50;;;7.60;99.90;;;;;;5092239;28;20641;-63
2021/05/05 10:58:04;;;;;;;;;;;7.50;99.90;;;;;;5109872;28;20297;-63
2021/05/05 11:01:05;;;;;;;17.40;3.10;;;7.60;99.90;;;;;;5109195;28;20354;-63
2021/05/05 11:03:44;;;;;;;16.30;3.23;;;8.20;99.90;;;;;;5105150;28;20294;-62
2021/05/05 11:06:29;;;;;;;10.60;2.20;;;7.60;99.90;;;;;;5110160;28;20388;-63
2021/05/05 11:09:10;;;;;;;;;;;6.90;99.90;;;;;;5109928;28;20412;-63
2021/05/05 11:11:38;;;;;;;14.17;3.10;;;6.70;99.90;;;;;;5109892;28;20017;-62
2021/05/05 11:14:04;;;;;;;13.13;2.57;;;6.70;99.90;;;;;;5109852;28;20293;-62
2021/05/05 11:16:51;;;;;;;12.30;2.80;;;6.90;99.90;;;;;;5109080;28;20392;-61
2021/05/05 11:19:40;;;;;;;12.97;2.57;;;7.10;99.90;;;;;;5109566;28;20312;-61
2021/05/05 11:22:18;;;;;;;16.27;3.10;;;7.10;99.90;;;;;;5109772;28;20293;-62
2021/05/05 11:24:45;;;;;;;17.67;3.00;;;7.10;99.90;;;;;;5109106;28;20304;-62
2021/05/05 11:27:13;;;;;;;23.50;4.20;;;7.10;99.90;;;;;;5112374;28;20063;-61
2021/05/05 11:29:47;;;;;;;18.13;3.20;;;7.30;99.90;;;;;;5112228;28;20340;-62
2021/05/05 11:32:15;;;;;;;;;;;7.40;99.90;;;;;;5112646;28;20289;-61
2021/05/05 11:34:44;;;;;;;21.37;4.03;;;7.70;99.90;;;;;;5112005;28;19927;-61
2021/05/05 11:37:09;;;;;;;22.40;4.43;;;8.00;99.90;;;;;;5111275;28;20326;-61
2021/05/05 11:39:38;;;;;;;24.27;3.67;;;8.30;99.90;;;;;;5112545;28;20787;-61
2021/05/05 11:42:13;;;;;;;19.17;3.10;;;8.60;99.90;;;;;;5093092;28;20044;-61
2021/05/05 11:44:46;;;;;;;14.43;3.53;;;8.50;99.90;;;;;;5111272;28;20350;-62
2021/05/05 11:47:14;;;;;;;17.27;3.17;;;8.60;99.90;;;;;;5112015;28;20313;-61
2021/05/05 11:49:42;;;;;;;18.63;3.33;;;8.60;99.90;;;;;;5111365;28;20296;-62
2021/05/05 11:52:26;;;;;;;21.00;4.10;;;8.80;99.90;;;;;;5111675;28;20293;-62
2021/05/05 11:55:00;;;;;;;13.35;2.95;;;9.10;99.90;;;;;;5110548;28;20392;-62
2021/05/05 11:57:29;;;;;;;22.58;3.80;;;9.20;99.90;;;;;;5110046;28;20097;-63
2021/05/05 12:00:08;;;;;;;20.07;3.40;;;9.00;99.90;;;;;;5110874;28;20066;-62
2021/05/05 12:02:45;;;;;;;13.43;2.90;;;9.00;99.90;;;;;;5111456;28;20381;-63
2021/05/05 12:05:21;;;;;;;17.53;2.87;;;8.90;99.90;;;;;;5112106;28;20297;-65
2021/05/05 12:07:59;;;;;;;18.30;3.70;;;8.80;99.90;;;;;;5111915;28;20638;-62
2021/05/05 12:10:44;;;;;;;14.23;3.10;;;8.60;99.90;;;;;;5112277;28;20840;-64
2021/05/05 12:13:19;;;;;;;19.33;3.27;;;8.70;99.90;;;;;;5111640;28;20780;-63
2021/05/05 12:16:01;;;;;;;23.13;3.73;;;8.90;99.90;;;;;;5111295;28;20293;-64
2021/05/05 12:18:34;;;;;;;18.87;3.20;;;9.10;99.90;;;;;;5110689;28;20411;-63
2021/05/05 12:21:13;;;;;;;20.65;4.35;;;9.00;99.90;;;;;;5110998;28;20302;-64
2021/05/05 12:23:44;;;;;;;18.17;4.00;;;9.20;99.90;;;;;;5110888;28;20463;-62
2021/05/05 12:26:21;;;;;;;20.27;4.10;;;9.50;99.90;;;;;;5111305;28;20772;-63
2021/05/05 12:28:49;;;;;;;24.17;4.40;;;10.00;99.90;;;;;;5111017;28;20673;-63
2021/05/05 12:31:16;;;;;;;25.97;4.70;;;10.20;99.90;;;;;;5111571;28;20376;-65
2021/05/05 12:33:44;;;;;;;21.17;4.10;;;10.40;99.90;;;;;;5110725;28;20397;-65
2021/05/05 12:36:15;;;;;;;23.43;4.20;;;10.40;99.90;;;;;;5111173;28;20297;-64
2021/05/05 12:38:43;;;;;;;17.33;4.00;;;10.60;99.90;;;;;;5111248;28;20767;-64
2021/05/05 12:41:23;;;;;;;23.93;3.73;;;10.80;99.90;;;;;;5111659;28;20358;-64
2021/05/05 12:43:55;;;;;;;22.27;3.93;;;10.90;99.40;;;;;;5111773;28;20289;-65
2021/05/05 12:46:26;;;;;;;23.33;4.00;;;10.60;95.60;;;;;;5111730;28;20293;-66
2021/05/05 12:48:54;;;;;;;19.93;3.60;;;10.40;97.50;;;;;;5111104;28;20390;-64
2021/05/05 12:51:24;;;;;;;16.23;3.43;;;10.40;99.90;;;;;;5111429;28;20285;-66
2021/05/05 12:54:00;;;;;;;24.33;4.40;;;10.60;99.90;;;;;;5111615;28;20301;-66
2021/05/05 12:56:37;;;;;;;22.73;4.17;;;10.60;98.90;;;;;;5110580;28;20304;-63
2021/05/05 12:59:03;;;;;;;18.20;4.03;;;10.50;95.90;;;;;;5111378;28;20808;-66
2021/05/05 13:01:30;;;;;;;14.13;2.83;;;10.60;96.10;;;;;;5112299;28;20833;-63
2021/05/05 13:03:55;;;;;;;17.03;3.43;;;10.70;88.00;;;;;;5111893;28;20293;-60
2021/05/05 13:06:35;;;;;;;14.67;3.30;;;10.80;90.60;;;;;;5111425;28;20383;-58
2021/05/05 13:09:17;;;;;;;12.17;2.70;;;10.80;86.80;;;;;;5110781;28;20067;-58
2021/05/05 13:11:45;;;;;;;10.53;2.67;;;10.50;79.00;;;;;;5111007;28;20412;-59
2021/05/05 13:14:24;;;;;;;12.67;2.77;;;10.30;81.60;;;;;;5110726;28;20637;-58
2021/05/05 13:20:11;;;;;;;15.70;2.83;;;10.60;79.50;;;;;;5110581;28;20293;-58
2021/05/05 13:31:31;;;;;;;15.67;3.03;;;10.70;78.60;;;;;;5095711;28;20817;-63
2021/05/05 13:34:08;;;;;;;13.40;2.50;;;10.60;81.00;;;;;;5109947;28;20376;-61
2021/05/05 13:36:58;;;;;;;14.63;3.13;;;10.40;76.80;;;;;;5110191;28;20290;-61
2021/05/05 13:39:35;;;;;;;15.10;2.80;;;10.50;80.60;;;;;;5110625;28;20288;-64
2021/05/05 13:42:06;;;;;;;14.87;3.03;;;10.50;83.30;;;;;;5111647;28;20293;-62
2021/05/05 13:44:48;;;;;;;20.07;3.13;;;10.60;85.90;;;;;;5110306;28;20329;-61
2021/05/05 13:47:33;;;;;;;19.30;3.43;;;10.70;91.40;;;;;;5109771;28;20751;-62
2021/05/05 13:49:59;;;;;;;17.13;3.05;;;10.90;89.20;;;;;;5109901;28;20402;-63
2021/05/05 13:52:27;;;;;;;12.57;2.50;;;10.90;90.10;;;;;;5091486;28;20501;-60
2021/05/05 13:54:53;;;;;;;14.30;3.07;;;10.70;82.70;;;;;;5109772;28;20347;-63
2021/05/05 13:57:19;;;;;;;17.03;3.40;;;10.60;83.60;;;;;;5109564;28;20384;-64
2021/05/05 13:59:45;;;;;;;16.60;4.10;;;10.60;87.60;;;;;;5109161;28;20297;-63
2021/05/05 14:02:13;;;;;;;13.07;2.80;;;10.80;88.30;;;;;;5100699;28;20329;-64
2021/05/05 14:04:40;;;;;;;17.20;3.10;;;10.80;82.30;;;;;;5089549;28;20290;-64
2021/05/05 14:07:09;;;;;;;16.53;3.10;;;10.60;82.40;;;;;;5089656;28;20300;-61
2021/05/05 14:09:34;;;;;;;14.50;2.70;;;10.40;87.00;;;;;;5089493;28;20428;-62